createdAt,value
2018-08-23T00:00:44.444Z,83.73
2018-08-23T00:03:48.850Z,83.83
2018-08-23T00:07:00.433Z,83.74
2018-08-23T00:10:04.845Z,84.21
2018-08-23T00:13:09.260Z,83.83
2018-08-23T00:16:13.967Z,82.92
2018-08-23T00:19:18.477Z,83.35
2018-08-23T00:22:27.116Z,83.05
2018-08-23T00:25:32.689Z,82.90
2018-08-23T00:28:37.217Z,82.80
2018-08-23T00:31:41.989Z,82.41
2018-08-23T00:34:46.437Z,82.37
2018-08-23T00:37:50.795Z,81.94
2018-08-23T00:40:55.288Z,81.81
2018-08-23T00:43:59.666Z,82.25
2018-08-23T00:47:04.338Z,81.45
2018-08-23T00:50:08.993Z,81.66
2018-08-23T00:53:13.377Z,81.12
2018-08-23T00:56:23.665Z,80.24
2018-08-23T00:59:28.140Z,80.28
2018-08-23T01:02:32.815Z,79.97
2018-08-23T01:05:38.581Z,80.34
2018-08-23T01:08:43.052Z,79.65
2018-08-23T01:11:47.771Z,76.44
2018-08-23T01:14:53.244Z,79.90
2018-08-23T01:18:13.168Z,81.15
2018-08-23T01:21:23.758Z,83.45
2018-08-23T01:24:31.648Z,82.03
2018-08-23T01:27:38.187Z,83.55
2018-08-23T01:30:42.957Z,84.15
2018-08-23T01:33:47.595Z,84.20
2018-08-23T01:36:52.005Z,84.87
2018-08-23T01:39:56.463Z,84.93
2018-08-23T01:43:00.998Z,85.57
2018-08-23T01:46:05.350Z,85.43
2018-08-23T01:49:09.820Z,85.68
2018-08-23T01:52:14.321Z,86.13
2018-08-23T01:55:19.781Z,86.64
2018-08-23T01:58:24.178Z,87.11
2018-08-23T02:01:36.853Z,87.35
2018-08-23T02:04:41.187Z,87.38
2018-08-23T02:07:45.549Z,87.52
2018-08-23T02:10:49.893Z,87.07
2018-08-23T02:13:54.229Z,87.32
2018-08-23T02:16:58.631Z,86.96
2018-08-23T02:20:03.069Z,85.55
2018-08-23T02:23:07.447Z,85.74
2018-08-23T02:26:12.007Z,84.97
2018-08-23T02:29:20.801Z,85.73
2018-08-23T02:32:25.153Z,85.63
2018-08-23T02:35:29.563Z,86.33
2018-08-23T02:38:34.651Z,86.10
2018-08-23T02:41:41.378Z,86.52
2018-08-23T02:44:46.918Z,86.04
2018-08-23T02:47:51.202Z,85.37
2018-08-23T02:50:55.582Z,85.29
2018-08-23T02:53:59.950Z,85.20
2018-08-23T02:57:08.881Z,85.09
2018-08-23T03:00:13.338Z,86.05
2018-08-23T03:03:17.927Z,85.16
2018-08-23T03:06:30.646Z,85.43
2018-08-23T03:09:36.228Z,85.53
2018-08-23T03:12:40.992Z,84.18
2018-08-23T03:15:46.818Z,83.76
2018-08-23T03:18:51.324Z,83.71
2018-08-23T03:22:01.029Z,83.90
2018-08-23T03:25:07.122Z,84.58
2018-08-23T03:28:12.150Z,84.99
2018-08-23T03:31:17.120Z,85.08
2018-08-23T03:34:21.454Z,85.68
2018-08-23T03:37:26.351Z,85.49
2018-08-23T03:40:30.769Z,84.68
2018-08-23T03:43:35.135Z,84.75
2018-08-23T03:46:53.557Z,84.96
2018-08-23T03:49:57.956Z,84.56
2018-08-23T03:53:02.367Z,84.59
2018-08-23T03:56:09.682Z,84.68
2018-08-23T03:59:14.066Z,85.61
2018-08-23T04:02:20.278Z,86.07
2018-08-23T04:05:24.657Z,86.33
2018-08-23T04:08:29.166Z,86.50
2018-08-23T04:11:33.544Z,86.34
2018-08-23T04:14:38.398Z,86.28
2018-08-23T04:17:42.770Z,86.17
2018-08-23T04:20:55.599Z,86.58
2018-08-23T04:24:03.704Z,86.28
2018-08-23T04:27:08.841Z,86.35
2018-08-23T04:30:13.211Z,85.78
2018-08-23T04:33:17.576Z,85.56
2018-08-23T04:36:30.319Z,85.59
2018-08-23T04:39:34.886Z,85.65
2018-08-23T04:42:39.282Z,85.82
2018-08-23T04:45:43.626Z,85.50
2018-08-23T04:48:50.992Z,84.42
2018-08-23T04:51:55.403Z,85.15
2018-08-23T04:54:59.939Z,84.14
2018-08-23T04:58:04.978Z,84.00
2018-08-23T05:01:09.358Z,84.75
2018-08-23T05:04:13.841Z,84.08
2018-08-23T05:07:18.230Z,83.44
2018-08-23T05:10:22.869Z,82.33
2018-08-23T05:13:27.332Z,82.71
2018-08-23T05:16:31.702Z,82.92
2018-08-23T05:19:36.034Z,82.88
2018-08-23T05:22:46.947Z,82.24
2018-08-23T05:25:56.021Z,82.49
2018-08-23T05:29:04.366Z,82.59
2018-08-23T05:32:08.715Z,82.35
2018-08-23T05:35:13.081Z,81.00
2018-08-23T05:38:18.469Z,80.61
2018-08-23T05:41:22.983Z,80.62
2018-08-23T05:44:27.490Z,79.28
2018-08-23T05:47:32.664Z,78.46
2018-08-23T05:50:39.085Z,77.79
2018-08-23T05:53:50.756Z,77.08
2018-08-23T05:56:55.221Z,76.93
2018-08-23T05:59:59.666Z,76.77
2018-08-23T06:03:04.817Z,74.36
2018-08-23T06:06:10.011Z,67.87
2018-08-23T06:09:16.563Z,61.40
2018-08-23T06:12:21.335Z,60.19
2018-08-23T06:15:25.789Z,59.73
2018-08-23T06:18:32.597Z,57.76
2018-08-23T06:21:36.979Z,55.92
2018-08-23T06:24:41.495Z,54.70
2018-08-23T06:27:45.942Z,56.61
2018-08-23T06:30:55.287Z,55.63
2018-08-23T06:34:00.418Z,54.80
2018-08-23T06:37:04.877Z,52.08
2018-08-23T06:40:09.368Z,48.97
2018-08-23T06:43:13.941Z,47.96
2018-08-23T06:46:20.315Z,46.07
2018-08-23T06:49:24.777Z,46.91
2018-08-23T06:53:01.475Z,43.83
2018-08-23T06:56:05.890Z,43.67
2018-08-23T06:59:11.574Z,44.68
2018-08-23T07:02:16.452Z,44.50
2018-08-23T07:05:21.074Z,44.06
2018-08-23T07:08:25.449Z,48.84
2018-08-23T07:11:30.127Z,48.22
2018-08-23T07:14:35.918Z,50.30
2018-08-23T07:17:40.579Z,50.88
2018-08-23T07:20:44.854Z,46.29
2018-08-23T07:23:49.251Z,46.58
2018-08-23T07:26:53.679Z,44.67
2018-08-23T07:29:59.102Z,45.64
2018-08-23T07:33:03.646Z,45.61
2018-08-23T07:36:30.659Z,45.44
2018-08-23T07:39:35.334Z,45.83
2018-08-23T07:42:40.929Z,47.40
2018-08-23T07:45:45.347Z,46.64
2018-08-23T07:48:49.724Z,47.31
2018-08-23T07:51:54.302Z,45.85
2018-08-23T07:55:00.154Z,45.73
2018-08-23T07:58:04.670Z,47.26
2018-08-23T08:01:10.676Z,47.18
2018-08-23T08:04:15.708Z,48.09
2018-08-23T08:07:25.910Z,47.59
2018-08-23T08:10:37.016Z,43.34
2018-08-23T08:13:41.513Z,42.62
2018-08-23T08:16:46.253Z,43.33
2018-08-23T08:19:56.579Z,42.97
2018-08-23T08:23:01.730Z,42.25
2018-08-23T08:26:06.364Z,41.06
2018-08-23T08:29:11.155Z,39.54
2018-08-23T08:32:17.539Z,40.90
2018-08-23T08:35:22.107Z,38.79
2018-08-23T08:38:26.541Z,38.61
2018-08-23T08:41:38.116Z,38.98
2018-08-23T08:44:42.545Z,45.38
2018-08-23T08:47:47.634Z,44.17
2018-08-23T08:51:14.342Z,42.74
2018-08-23T08:54:18.992Z,43.73
2018-08-23T08:57:29.622Z,43.41
2018-08-23T09:00:53.580Z,45.26
2018-08-23T09:03:58.116Z,44.44
2018-08-23T09:07:02.538Z,43.66
2018-08-23T09:10:07.248Z,43.03
2018-08-23T09:13:11.705Z,43.23
2018-08-23T09:16:16.629Z,42.78
2018-08-23T09:19:21.220Z,42.64
2018-08-23T09:22:25.714Z,43.96
2018-08-23T09:25:35.308Z,43.39
2018-08-23T09:28:39.726Z,43.94
2018-08-23T09:31:44.205Z,41.32
2018-08-23T09:34:49.023Z,44.45
2018-08-23T09:37:56.775Z,44.14
2018-08-23T09:41:01.303Z,44.52
2018-08-23T09:44:06.069Z,43.78
2018-08-23T09:47:10.502Z,47.15
2018-08-23T09:50:15.068Z,45.06
2018-08-23T09:53:25.179Z,45.50
2018-08-23T09:56:29.607Z,46.90
2018-08-23T09:59:37.502Z,48.20
2018-08-23T10:02:47.037Z,46.04
2018-08-23T10:05:56.888Z,47.39
2018-08-23T10:09:15.554Z,46.01
2018-08-23T10:12:25.154Z,45.21
2018-08-23T10:15:35.951Z,45.76
2018-08-23T10:18:46.737Z,43.91
2018-08-23T10:21:56.486Z,44.66
2018-08-23T10:25:05.189Z,43.16
2018-08-23T10:28:11.910Z,44.63
2018-08-23T10:31:16.439Z,43.81
2018-08-23T10:34:20.915Z,41.79
2018-08-23T10:37:25.512Z,45.32
2018-08-23T10:40:30.131Z,41.61
2018-08-23T10:43:39.968Z,43.38
2018-08-23T10:46:49.908Z,42.41
2018-08-23T10:49:54.514Z,41.69
2018-08-23T10:52:59.052Z,45.48
2018-08-23T10:56:03.670Z,44.11
2018-08-23T10:59:08.514Z,43.74
2018-08-23T11:02:12.985Z,39.92
2018-08-23T11:05:17.829Z,41.64
2018-08-23T11:08:25.215Z,41.74
2018-08-23T11:11:32.642Z,40.34
2018-08-23T11:14:41.081Z,40.89
2018-08-23T11:17:51.234Z,40.83
2018-08-23T11:20:55.733Z,42.39
2018-08-23T11:24:00.307Z,43.84
2018-08-23T11:27:04.759Z,40.45
2018-08-23T11:30:09.222Z,41.26
2018-08-23T11:33:13.755Z,42.06
2018-08-23T11:36:19.326Z,41.95
2018-08-23T11:39:24.344Z,43.78
2018-08-23T11:42:28.930Z,43.12
2018-08-23T11:45:33.896Z,44.75
2018-08-23T11:48:38.491Z,43.56
2018-08-23T11:51:42.954Z,42.39
2018-08-23T11:54:47.510Z,44.21
2018-08-23T11:57:52.079Z,42.00
2018-08-23T12:01:01.878Z,43.61
2018-08-23T12:04:06.634Z,43.32
2018-08-23T12:07:11.062Z,43.50
2018-08-23T12:10:18.239Z,43.35
2018-08-23T12:13:22.613Z,43.27
2018-08-23T12:16:27.147Z,43.01
2018-08-23T12:19:31.636Z,41.63
2018-08-23T12:22:43.958Z,43.12
2018-08-23T12:25:48.626Z,42.95
2018-08-23T12:28:58.317Z,43.42
2018-08-23T12:32:03.115Z,43.47
2018-08-23T12:35:07.936Z,43.77
2018-08-23T12:38:20.534Z,41.93
2018-08-23T12:41:30.875Z,41.12
2018-08-23T12:44:48.308Z,39.50
2018-08-23T12:47:52.785Z,37.73
2018-08-23T12:50:59.761Z,39.63
2018-08-23T12:54:04.519Z,38.55
2018-08-23T12:57:09.197Z,38.53
2018-08-23T13:00:13.590Z,40.60
2018-08-23T13:03:18.269Z,40.24
2018-08-23T13:06:22.671Z,39.82
2018-08-23T13:09:27.096Z,39.41
2018-08-23T13:12:31.561Z,40.64
2018-08-23T13:15:36.317Z,39.81
2018-08-23T13:18:41.062Z,40.96
2018-08-23T13:21:49.793Z,40.65
2018-08-23T13:24:59.538Z,40.83
2018-08-23T13:28:04.651Z,41.28
2018-08-23T13:31:09.264Z,41.51
2018-08-23T13:34:13.993Z,40.30
2018-08-23T13:37:24.354Z,38.42
2018-08-23T13:40:31.557Z,41.35
2018-08-23T13:43:36.265Z,43.24
2018-08-23T13:46:40.503Z,44.68
2018-08-23T13:49:45.337Z,45.78
2018-08-23T13:52:49.892Z,47.04
2018-08-23T13:55:56.207Z,48.00
2018-08-23T13:59:01.314Z,50.55
2018-08-23T14:02:05.721Z,50.80
2018-08-23T14:05:10.755Z,52.24
2018-08-23T14:08:15.158Z,54.86
2018-08-23T14:11:19.597Z,54.90
2018-08-23T14:14:24.483Z,55.37
2018-08-23T14:17:28.985Z,61.81
2018-08-23T14:20:33.379Z,67.38
2018-08-23T14:23:37.832Z,72.22
2018-08-23T14:26:42.240Z,73.00
2018-08-23T14:29:47.228Z,81.75
2018-08-23T14:32:51.976Z,88.64
2018-08-23T14:35:57.505Z,98.28
2018-08-23T14:39:01.918Z,97.01
2018-08-23T14:42:06.621Z,96.64
2018-08-23T14:45:11.138Z,87.87
2018-08-23T14:48:17.427Z,90.03
2018-08-23T14:51:21.884Z,88.56
2018-08-23T14:54:31.448Z,89.53
2018-08-23T14:57:37.087Z,96.12
2018-08-23T15:00:41.621Z,97.86
2018-08-23T15:03:46.082Z,100.00
2018-08-23T15:06:50.533Z,100.00
2018-08-23T15:09:55.345Z,100.00
2018-08-23T15:13:00.509Z,100.00
2018-08-23T15:16:05.066Z,100.00
2018-08-23T15:19:09.718Z,100.00
2018-08-23T15:22:14.115Z,100.00
2018-08-23T15:25:18.513Z,100.00
2018-08-23T15:28:22.903Z,100.00
2018-08-23T15:31:27.490Z,100.00
2018-08-23T15:34:32.048Z,100.00
2018-08-23T15:37:36.595Z,100.00
2018-08-23T15:40:41.068Z,100.00
2018-08-23T15:43:45.777Z,100.00
2018-08-23T15:46:50.270Z,100.00
2018-08-23T15:49:55.466Z,100.00
2018-08-23T15:53:00.163Z,100.00
2018-08-23T15:56:04.858Z,100.00
2018-08-23T15:59:09.451Z,100.00
2018-08-23T16:02:14.026Z,100.00
2018-08-23T16:05:18.755Z,100.00
2018-08-23T16:08:23.241Z,100.00
2018-08-23T16:11:28.114Z,100.00
2018-08-23T16:14:33.542Z,100.00
2018-08-23T16:17:43.422Z,100.00
2018-08-23T16:20:52.863Z,100.00
2018-08-23T16:23:57.906Z,100.00
2018-08-23T16:27:05.490Z,100.00
2018-08-23T16:30:10.073Z,100.00
2018-08-23T16:33:14.529Z,100.00
2018-08-23T16:36:19.105Z,100.00
2018-08-23T16:39:23.796Z,100.00
2018-08-23T16:42:28.461Z,100.00
2018-08-23T16:45:32.894Z,100.00
2018-08-23T16:48:37.460Z,100.00
2018-08-23T16:51:42.357Z,100.00
2018-08-23T16:54:47.038Z,100.00
2018-08-23T16:57:53.645Z,100.00
2018-08-23T17:00:58.967Z,100.00
2018-08-23T17:04:03.478Z,100.00
2018-08-23T17:07:08.541Z,100.00
2018-08-23T17:10:13.513Z,100.00
2018-08-23T17:13:24.327Z,100.00
2018-08-23T17:16:34.593Z,100.00
2018-08-23T17:19:49.046Z,100.00
2018-08-23T17:22:53.894Z,100.00
2018-08-23T17:25:58.645Z,100.00
2018-08-23T17:29:03.223Z,100.00
2018-08-23T17:32:08.349Z,100.00
2018-08-23T17:35:12.863Z,100.00
2018-08-23T17:38:17.514Z,100.00
2018-08-23T17:41:21.910Z,100.00
2018-08-23T17:44:26.421Z,100.00
2018-08-23T17:47:31.065Z,100.00
2018-08-23T17:50:35.967Z,100.00
2018-08-23T17:53:41.796Z,100.00
2018-08-23T17:56:46.386Z,100.00
2018-08-23T17:59:51.031Z,100.00
2018-08-23T18:02:55.430Z,100.00
2018-08-23T18:05:59.901Z,100.00
2018-08-23T18:09:07.001Z,100.00
2018-08-23T18:12:11.667Z,100.00
2018-08-23T18:15:16.250Z,100.00
2018-08-23T18:18:22.821Z,100.00
2018-08-23T18:21:28.182Z,100.00
2018-08-23T18:24:33.198Z,100.00
2018-08-23T18:27:52.891Z,100.00
2018-08-23T18:30:57.703Z,100.00
2018-08-23T18:34:03.883Z,100.00
2018-08-23T18:37:08.470Z,100.00
2018-08-23T18:40:13.752Z,100.00
2018-08-23T18:43:18.271Z,100.00
2018-08-23T18:46:23.931Z,100.00
2018-08-23T18:49:29.539Z,100.00
2018-08-23T18:52:34.151Z,100.00
2018-08-23T18:55:38.740Z,100.00
2018-08-23T18:58:43.620Z,100.00
2018-08-23T19:01:48.298Z,100.00
2018-08-23T19:04:53.385Z,100.00
2018-08-23T19:07:57.976Z,100.00
2018-08-23T19:11:02.403Z,100.00
2018-08-23T19:14:06.830Z,100.00
2018-08-23T19:17:17.665Z,100.00
2018-08-23T19:20:22.102Z,100.00
2018-08-23T19:23:26.698Z,100.00
2018-08-23T19:26:31.204Z,100.00
2018-08-23T19:29:35.966Z,100.00
2018-08-23T19:32:40.380Z,100.00
2018-08-23T19:35:44.804Z,100.00
2018-08-23T19:38:49.229Z,100.00
2018-08-23T19:41:54.424Z,100.00
2018-08-23T19:45:00.889Z,100.00
2018-08-23T19:48:05.632Z,100.00
2018-08-23T19:51:10.029Z,100.00
2018-08-23T19:54:14.536Z,100.00
2018-08-23T19:57:19.458Z,100.00
2018-08-23T20:00:24.114Z,100.00
2018-08-23T20:03:28.898Z,100.00
2018-08-23T20:06:33.399Z,100.00
2018-08-23T20:09:38.080Z,100.00
2018-08-23T20:12:42.650Z,100.00
2018-08-23T20:15:47.053Z,100.00
2018-08-23T20:18:51.609Z,100.00
2018-08-23T20:21:56.480Z,100.00
2018-08-23T20:25:01.029Z,100.00
2018-08-23T20:28:05.765Z,100.00
2018-08-23T20:31:10.230Z,100.00
2018-08-23T20:34:14.634Z,100.00
2018-08-23T20:37:19.201Z,100.00
2018-08-23T20:40:23.746Z,100.00
2018-08-23T20:43:28.155Z,100.00
2018-08-23T20:46:32.658Z,100.00
2018-08-23T20:49:37.162Z,100.00
2018-08-23T20:52:41.858Z,100.00
2018-08-23T20:55:49.442Z,100.00
2018-08-23T20:58:54.165Z,100.00
2018-08-23T21:01:58.762Z,100.00
2018-08-23T21:05:03.223Z,100.00
2018-08-23T21:08:07.962Z,100.00
2018-08-23T21:11:12.505Z,100.00
2018-08-23T21:14:16.961Z,100.00
2018-08-23T21:17:21.601Z,100.00
2018-08-23T21:20:26.048Z,100.00
2018-08-23T21:23:30.603Z,100.00
2018-08-23T21:26:35.168Z,100.00
2018-08-23T21:29:40.057Z,100.00
2018-08-23T21:32:44.428Z,100.00
2018-08-23T21:35:48.946Z,100.00
2018-08-23T21:38:53.306Z,100.00
2018-08-23T21:41:57.687Z,100.00
2018-08-23T21:45:02.047Z,100.00
2018-08-23T21:48:06.816Z,100.00
2018-08-23T21:51:11.632Z,100.00
2018-08-23T21:54:16.137Z,100.00
2018-08-23T21:57:20.549Z,100.00
2018-08-23T22:00:24.927Z,100.00
2018-08-23T22:03:29.445Z,100.00
2018-08-23T22:06:33.952Z,100.00
2018-08-23T22:09:38.592Z,100.00
2018-08-23T22:12:42.871Z,100.00
2018-08-23T22:15:49.433Z,100.00
2018-08-23T22:18:54.099Z,100.00
2018-08-23T22:21:58.550Z,100.00
2018-08-23T22:25:03.034Z,100.00
2018-08-23T22:28:07.926Z,100.00
2018-08-23T22:31:12.441Z,100.00
2018-08-23T22:34:18.009Z,100.00
2018-08-23T22:37:22.483Z,100.00
2018-08-23T22:40:27.219Z,100.00
2018-08-23T22:43:32.198Z,100.00
2018-08-23T22:46:36.895Z,100.00
2018-08-23T22:49:41.311Z,100.00
2018-08-23T22:52:45.727Z,100.00
2018-08-23T22:55:50.442Z,100.00
2018-08-23T22:58:54.932Z,100.00
2018-08-23T23:01:59.425Z,100.00
2018-08-23T23:05:03.999Z,100.00
2018-08-23T23:08:08.820Z,100.00
2018-08-23T23:11:13.287Z,100.00
2018-08-23T23:14:24.385Z,100.00
2018-08-23T23:17:29.382Z,100.00
2018-08-23T23:20:33.767Z,100.00
2018-08-23T23:23:38.186Z,100.00
2018-08-23T23:26:42.633Z,100.00
2018-08-23T23:29:47.306Z,100.00
2018-08-23T23:32:51.765Z,100.00
2018-08-23T23:35:56.469Z,100.00
2018-08-23T23:39:01.031Z,100.00
2018-08-23T23:42:05.969Z,100.00
2018-08-23T23:45:10.427Z,100.00
2018-08-23T23:48:14.801Z,100.00
2018-08-23T23:51:19.314Z,100.00
2018-08-23T23:54:23.699Z,100.00
2018-08-23T23:57:29.069Z,100.00
